KAVP Detailed METAR

Nearby METAR Reports

 

KAVP - Avoca/Wilkes B., Pennsylvania, USA
Distance from station: SW 13mi, 22km
Updated: Thu, 24-Jun-2021 16:54 EDT
Few Clouds
Few Clouds
 Wind from varies
Wind: varies 6 mph , 9 km/h
Temperature: 75°F , 24°C
Dew Point: 48°F , 9°C
Humidity: 39%
Barometer: 30.29 inHg , 1025.7 hPa
Clouds: Few Clouds
Visibility: 10 miles , 16 km
Cloud details: Few Clouds 6500 ft
2021/06/24 20:54 KAVP 242054Z VRB05KT 10SM FEW065 24/09 A3029 RMK AO2 SLP253 T02440089 56017
KMPO - Mt. Pocono, Pennsylvania, USA
Distance from station: SSE 26mi, 43km
Updated: Thu, 24-Jun-2021 16:53 EDT
Partly cloudy
Partly cloudy
 Wind from SSE
Wind: SSE 12 mph , 19 km/h
Temperature: 70°F , 21°C
Dew Point: 46°F , 8°C
Humidity: 43%
Barometer: 30.34 inHg , 1027.4 hPa
Clouds: Partly cloudy
Visibility: 10 miles , 16 km
Cloud details: Partly cloudy 5000 ft
2021/06/24 20:53 KMPO 242053Z AUTO 15010KT 10SM SCT050 21/08 A3034 RMK AO2 SLP276 T02060083 56020
 
KMSV - Monticello, New York, USA
Distance from station: ENE 43mi, 69km
Updated: Thu, 24-Jun-2021 16:56 EDT
Clear
Clear
 Wind from SSE
Wind: SSE 12 mph , 19 km/h
Temperature: 72°F , 22°C
Dew Point: 46°F , 8°C
Humidity: 41%
Barometer: 30.34 inHg , 1027.4 hPa
Clouds: Clear
Visibility: 10 miles , 16 km
2021/06/24 20:56 KMSV 242056Z AUTO 15010KT 10SM CLR 22/08 A3034 RMK AO2 SLP273 T02220083 56022
KFWN - Sussex, New Jersey, USA
Distance from station: ESE 52mi, 84km
Updated: Thu, 24-Jun-2021 16:53 EDT
Clear
Clear
 Wind from SE
Wind: SE 6 mph , 9 km/h
Temperature: 75°F , 24°C
Dew Point: 48°F , 9°C
Humidity: 39%
Barometer: 30.31 inHg , 1026.4 hPa
Clouds: Clear
Visibility: 10 miles , 16 km
2021/06/24 20:53 KFWN 242053Z AUTO 14005KT 10SM CLR 24/09 A3031 RMK AO2 SLP262 T02390094 57023
 
K12N - Andover, New Jersey, USA
Distance from station: SE 54mi, 87km
Updated: Thu, 24-Jun-2021 16:54 EDT

 Wind from varies
Wind: varies 7 mph , 11 km/h
Temperature: 75°F , 24°C
Dew Point: 46°F , 8°C
Humidity: 36%
Barometer: 30.31 inHg , 1026.4 hPa
2021/06/24 20:54 K12N 242054Z AUTO VRB06KT 24/08 A3031 RMK AO1 SLP262 T02390083 56024
KBGM - Binghamton, New York, USA
Distance from station: NNW 55mi, 88km
Updated: Thu, 24-Jun-2021 16:53 EDT
Clear
Clear
 Wind from S
Wind: S 10 mph , 17 km/h
Temperature: 73°F , 23°C
Dew Point: 46°F , 8°C
Humidity: 38%
Barometer: 30.27 inHg , 1025.1 hPa
Clouds: Clear
Visibility: 10 miles , 16 km
2021/06/24 20:53 KBGM 242053Z 18009KT 10SM CLR 23/08 A3027 RMK AO2 SLP247 T02280078 58018
 
KABE - Allentown, Pennsylvania, USA
Distance from station: S 58mi, 94km
Updated: Thu, 24-Jun-2021 16:51 EDT
Clear
Clear
 Wind from varies
Wind: varies 3 mph , 6 km/h
Temperature: 75°F , 24°C
Dew Point: 46°F , 8°C
Humidity: 36%
Barometer: 30.30 inHg , 1026.1 hPa
Clouds: Clear
Visibility: 10 miles , 16 km
2021/06/24 20:51 KABE 242051Z VRB03KT 10SM CLR 24/08 A3030 RMK AO2 SLP259 T02440083 56023
KXLL - Allentown Queen, Pennsylvania, USA
Distance from station: S 64mi, 103km
Updated: Thu, 24-Jun-2021 17:15 EDT
Clear
Clear
 Wind from ESE
Wind: ESE 8 mph , 13 km/h
Temperature: 77°F , 25°C
Dew Point: 48°F , 9°C
Humidity: 36%
Barometer: 30.31 inHg , 1026.4 hPa
Clouds: Clear
Visibility: 10 miles , 16 km
2021/06/24 21:15 KXLL 242115Z AUTO 12007KT 10SM CLR 25/09 A3031 RMK AO2
 
KMGJ - Montgomery, New York, USA
Distance from station: E 67mi, 108km
Updated: Thu, 24-Jun-2021 16:54 EDT
Clear
Clear
 Wind from SE
Wind: SE 8 mph , 13 km/h
Temperature: 75°F , 24°C
Dew Point: 46°F , 8°C
Humidity: 36%
Barometer: 30.30 inHg , 1026.1 hPa
Clouds: Clear
Visibility: 10 miles , 16 km
2021/06/24 20:54 KMGJ 242054Z AUTO 13007KT 10SM CLR 24/08 A3030 RMK AO2 SLP260 T02390078 58025
KIPT - Williamsport, Pennsylvania, USA
Distance from station: WSW 72mi, 116km
Updated: Thu, 24-Jun-2021 16:54 EDT
Clear
Clear
 Wind from SE
Wind: SE 13 mph , 20 km/h
Temperature: 79°F , 26°C
Dew Point: 48°F , 9°C
Humidity: 34%
Barometer: 30.24 inHg , 1024 hPa
Clouds: Clear
Visibility: 10 miles , 16 km
2021/06/24 20:54 KIPT 242054Z 14011KT 10SM CLR 26/09 A3024 RMK AO2 SLP238 T02560094 58020
 
KUKT - Quakertown Arp, Pennsylvania, USA
Distance from station: S 74mi, 119km
Updated: Thu, 24-Jun-2021 17:35 EDT
Clear
Clear
 Wind from E
Wind: E 8 mph , 13 km/h
Temperature: 75°F , 24°C
Dew Point: 48°F , 9°C
Humidity: 39%
Barometer: 30.30 inHg , 1026.1 hPa
Clouds: Clear
Visibility: 10 miles , 16 km
2021/06/24 21:35 KUKT 242135Z AUTO 08007KT 050V110 10SM CLR 24/09 A3030 RMK A01
KSMQ - Somerville, New Jersey, USA
Distance from station: SE 76mi, 123km
Updated: Thu, 24-Jun-2021 16:53 EDT
Clear
Clear
 Wind from ESE
Wind: ESE 8 mph , 13 km/h
Temperature: 77°F , 25°C
Dew Point: 43°F , 6°C
Humidity: 30%
Barometer: 30.29 inHg , 1025.7 hPa
Clouds: Clear
Visibility: 10 miles , 16 km
2021/06/24 20:53 KSMQ 242053Z AUTO 12007KT 10SM CLR 25/06 A3029 RMK AO2 SLP257 T02500061 58020
 
KSWF - Newburgh/Stewart, New York, USA
Distance from station: E 77mi, 123km
Updated: Thu, 24-Jun-2021 16:45 EDT
Clear
Clear
 Wind from S
Wind: S 9 mph , 15 km/h
Temperature: 75°F , 24°C
Dew Point: 45°F , 7°C
Humidity: 34%
Barometer: 30.32 inHg , 1026.8 hPa
Clouds: Clear
Visibility: 10 miles , 16 km
2021/06/24 20:45 KSWF 242045Z 19008KT 10SM SKC 24/07 A3032
KMMU - Morristown Muni, New Jersey, USA
Distance from station: SE 77mi, 124km
Updated: Thu, 24-Jun-2021 16:45 EDT
Clear
Clear
 Wind from SE
Wind: SE 9 mph , 15 km/h, Gust: 16 mph , 26 km/h
Temperature: 77°F , 25°C
Dew Point: 52°F , 11°C
Humidity: 42%
Barometer: 30.32 inHg , 1026.8 hPa
Clouds: Clear
Visibility: 10 miles , 16 km
2021/06/24 20:45 KMMU 242045Z 13008G14KT 10SM SKC 25/11 A3032
 
KCDW - Caldwell, New Jersey, USA
Distance from station: ESE 79mi, 127km
Updated: Thu, 24-Jun-2021 16:53 EDT
Clear
Clear
 Wind from SE
Wind: SE 7 mph , 11 km/h
Temperature: 75°F , 24°C
Dew Point: 46°F , 8°C
Humidity: 36%
Barometer: 30.32 inHg , 1026.8 hPa
Clouds: Clear
Visibility: 10 miles , 16 km
2021/06/24 20:53 KCDW 242053Z 14006KT 10SM CLR 24/08 A3032 RMK AO2 SLP270 T02440083 58021 $
KRDG - Reading, Pennsylvania, USA
Distance from station: SSW 80mi, 130km
Updated: Thu, 24-Jun-2021 16:54 EDT
Few Clouds
Few Clouds
 Wind from ESE
Wind: ESE 12 mph , 19 km/h
Temperature: 79°F , 26°C
Dew Point: 48°F , 9°C
Humidity: 34%
Barometer: 30.28 inHg , 1025.4 hPa
Clouds: Few Clouds
Visibility: 10 miles , 16 km
Cloud details: Few Clouds 6500 ft
2021/06/24 20:54 KRDG 242054Z 11010KT 10SM FEW065 26/09 A3028 RMK AO2 WSHFT 2015 SLP256 T02560094 56024
 
KITH - Ithaca/Tompkins, New York, USA
Distance from station: NW 81mi, 131km
Updated: Thu, 24-Jun-2021 16:56 EDT
Clear
Clear
 Wind from S
Wind: S 13 mph , 20 km/h
Temperature: 79°F , 26°C
Dew Point: 52°F , 11°C
Humidity: 39%
Barometer: 30.25 inHg , 1024.4 hPa
Clouds: Clear
Visibility: 10 miles , 16 km
2021/06/24 20:56 KITH 242056Z 18011KT 10SM CLR 26/11 A3025 RMK AO2 SLP238 T02560106 58015
KSEG - Selinsgrove, Pennsylvania, USA
Distance from station: SW 82mi, 132km
Updated: Thu, 24-Jun-2021 16:53 EDT
Clear
Clear
 Wind from S
Wind: S 9 mph , 15 km/h, Gust: 18 mph , 30 km/h
Temperature: 79°F , 26°C
Dew Point: 48°F , 9°C
Humidity: 34%
Barometer: 30.27 inHg , 1025.1 hPa
Clouds: Clear
Visibility: 10 miles , 16 km
2021/06/24 20:53 KSEG 242053Z AUTO 19008G16KT 10SM CLR 26/09 A3027 RMK AO2 SLP249 T02560089 56020
 
KELM - Elmira, New York, USA
Distance from station: WNW 82mi, 133km
Updated: Thu, 24-Jun-2021 16:53 EDT
Clear
Clear
 Wind from SSW
Wind: SSW 12 mph , 19 km/h
Temperature: 79°F , 26°C
Dew Point: 48°F , 9°C
Humidity: 34%
Barometer: 30.23 inHg , 1023.7 hPa
Clouds: Clear
Visibility: 10 miles , 16 km
2021/06/24 20:53 KELM 242053Z 20010KT 10SM CLR 26/09 A3023 RMK AO2 SLP234 T02560089 58018
KDYL - Doylestown, Pennsylvania, USA
Distance from station: SSE 83mi, 134km
Updated: Fri, 18-Jun-2021 23:54 EDT
NOT Current
Clear
Clear
 Wind from SSW
Wind: SSW 7 mph , 11 km/h
Temperature: 73°F , 23°C
Dew Point: 57°F , 14°C
Humidity: 57%
Barometer: 29.86 inHg , 1011.2 hPa
Clouds: Clear
Visibility: 10 miles , 16 km
2021/06/19 03:54 KDYL 190354Z AUTO 20006KT 10SM CLR 23/14 A2986 RMK AO2 SLP107 T02280139